createdAt,value
2018-01-03T01:00:14.560Z,26.43
2018-01-03T01:02:47.190Z,31.60
2018-01-03T01:49:29.642Z,5.50
2018-01-03T01:51:57.373Z,7.93
2018-01-03T01:54:27.610Z,5.93
2018-01-03T01:56:56.467Z,6.63
2018-01-03T01:59:24.294Z,6.70
2018-01-03T02:01:52.546Z,6.70
2018-01-03T02:04:20.334Z,7.60
2018-01-03T02:06:48.088Z,6.43
2018-01-03T02:09:15.912Z,7.07
2018-01-03T02:11:43.593Z,6.17
2018-01-03T02:14:11.553Z,6.00
2018-01-03T02:16:40.306Z,7.03
2018-01-03T02:19:08.605Z,8.37
2018-01-03T02:21:37.412Z,5.70
2018-01-03T02:24:05.104Z,7.33
2018-01-03T02:26:32.833Z,7.67
2018-01-03T02:29:00.555Z,7.00
2018-01-03T02:31:28.501Z,7.60
2018-01-03T02:33:56.281Z,6.90
2018-01-03T02:36:24.388Z,7.63
2018-01-03T02:38:52.097Z,7.97
2018-01-03T02:41:19.796Z,6.70
2018-01-03T02:43:47.530Z,6.50
2018-01-03T02:46:15.486Z,7.57
2018-01-03T02:48:43.197Z,7.80
2018-01-03T02:51:10.850Z,7.37
2018-01-03T02:53:38.544Z,7.00
2018-01-03T02:56:06.216Z,6.87
2018-01-03T02:58:34.286Z,6.70
2018-01-03T03:01:02.372Z,6.40
2018-01-03T03:03:30.120Z,5.13
2018-01-03T03:05:57.976Z,6.00
2018-01-03T03:08:26.070Z,5.20
2018-01-03T03:10:53.791Z,5.23
2018-01-03T03:13:21.505Z,6.80
2018-01-03T03:15:49.565Z,6.30
2018-01-03T03:18:17.246Z,6.33
2018-01-03T03:20:44.990Z,6.30
2018-01-03T03:23:12.647Z,8.07
2018-01-03T03:25:40.310Z,7.80
2018-01-03T03:28:08.487Z,6.70
2018-01-03T03:30:36.194Z,6.00
2018-01-03T03:33:04.023Z,6.83
2018-01-03T03:35:31.713Z,7.10
2018-01-03T03:37:59.361Z,5.73
2018-01-03T03:40:27.150Z,6.67
2018-01-03T03:42:54.854Z,5.27
2018-01-03T03:45:23.038Z,5.83
2018-01-03T03:47:50.880Z,5.40
2018-01-03T03:50:18.510Z,5.53
2018-01-03T03:52:46.558Z,3.13
2018-01-03T03:55:14.265Z,2.00
2018-01-03T03:57:41.993Z,0.50
2018-01-03T04:00:09.722Z,0.50
2018-01-03T04:02:38.202Z,0.60
2018-01-03T04:05:05.945Z,0.50
2018-01-03T04:07:33.604Z,0.43
2018-01-03T04:10:01.359Z,0.60
2018-01-03T04:12:29.148Z,0.40
2018-01-03T04:14:57.841Z,0.50
2018-01-03T04:17:25.583Z,0.30
2018-01-03T04:19:53.311Z,2.10
2018-01-03T04:22:21.039Z,0.50
2018-01-03T04:24:48.742Z,0.50
2018-01-03T04:27:16.404Z,0.50
2018-01-03T04:29:44.129Z,0.60
2018-01-03T04:32:12.310Z,0.60
2018-01-03T04:34:40.480Z,0.40
2018-01-03T04:37:08.157Z,0.50
2018-01-03T04:39:36.320Z,0.40
2018-01-03T04:42:04.048Z,0.50
2018-01-03T04:44:31.739Z,0.60
2018-01-03T04:46:59.424Z,0.90
2018-01-03T04:49:27.172Z,0.73
2018-01-03T04:51:55.100Z,0.80
2018-01-03T04:54:23.226Z,0.80
2018-01-03T04:56:51.382Z,2.00
2018-01-03T04:59:19.092Z,1.03
2018-01-03T05:01:46.808Z,1.27
2018-01-03T05:04:14.534Z,1.60
2018-01-03T05:06:42.537Z,1.07
2018-01-03T05:09:10.252Z,1.80
2018-01-03T05:11:37.943Z,2.50
2018-01-03T05:14:05.778Z,1.70
2018-01-03T05:16:33.612Z,1.90
2018-01-03T05:19:01.322Z,2.03
2018-01-03T05:21:29.093Z,2.43
2018-01-03T05:23:56.958Z,2.30
2018-01-03T05:26:24.645Z,2.23
2018-01-03T05:28:52.839Z,2.27
2018-01-03T05:31:20.628Z,2.27
2018-01-03T05:33:48.384Z,2.10
2018-01-03T05:36:16.548Z,1.93
2018-01-03T05:38:44.230Z,2.00
2018-01-03T05:41:12.041Z,2.53
2018-01-03T05:43:40.790Z,2.17
2018-01-03T05:46:09.036Z,2.37
2018-01-03T05:48:36.797Z,2.67
2018-01-03T05:51:04.570Z,2.40
2018-01-03T05:53:33.071Z,2.67
2018-01-03T05:56:03.555Z,2.40
2018-01-03T05:58:31.315Z,2.60
2018-01-03T06:03:30.894Z,2.80
2018-01-03T06:06:00.676Z,2.03
2018-01-03T06:08:28.412Z,2.60
2018-01-03T06:10:59.156Z,2.37
2018-01-03T06:13:26.955Z,2.93
2018-01-03T06:15:54.759Z,4.20
2018-01-03T06:18:22.487Z,1.97
2018-01-03T06:20:50.251Z,3.00
2018-01-03T06:23:17.989Z,2.93
2018-01-03T06:25:45.673Z,2.50
2018-01-03T06:28:13.478Z,2.97
2018-01-03T06:30:41.487Z,2.80
2018-01-03T06:33:12.959Z,3.90
2018-01-03T06:35:40.997Z,2.50
2018-01-03T06:38:08.748Z,2.30
2018-01-03T06:40:36.537Z,2.80
2018-01-03T06:43:04.938Z,2.20
2018-01-03T06:45:36.083Z,2.03
2018-01-03T06:48:05.031Z,2.47
2018-01-03T06:50:34.438Z,2.70
2018-01-03T06:53:03.249Z,2.80
2018-01-03T06:55:31.141Z,3.20
2018-01-03T06:57:59.336Z,2.47
2018-01-03T07:00:28.504Z,3.70
2018-01-03T07:02:58.417Z,2.87
2018-01-03T07:05:27.852Z,2.70
2018-01-03T07:07:56.683Z,1.00
2018-01-03T07:10:24.314Z,1.87
2018-01-03T07:12:51.996Z,2.00
2018-01-03T07:15:19.753Z,2.50
2018-01-03T07:17:47.568Z,2.00
2018-01-03T07:20:15.748Z,1.93
2018-01-03T07:22:43.520Z,1.80
2018-01-03T07:25:11.366Z,1.47
2018-01-03T07:27:39.089Z,2.03
2018-01-03T07:30:09.591Z,1.37
2018-01-03T07:32:37.746Z,2.30
2018-01-03T07:35:12.154Z,1.30
2018-01-03T07:37:41.018Z,1.33
2018-01-03T07:40:08.882Z,1.03
2018-01-03T07:42:36.855Z,1.47
2018-01-03T07:45:04.661Z,2.03
2018-01-03T07:47:32.467Z,0.90
2018-01-03T07:50:00.250Z,1.00
2018-01-03T07:52:27.981Z,1.53
2018-01-03T07:54:55.880Z,1.40
2018-01-03T07:57:23.609Z,1.37
2018-01-03T07:59:51.358Z,1.37
2018-01-03T08:02:19.178Z,1.43
2018-01-03T08:04:46.908Z,1.83
2018-01-03T08:07:15.151Z,1.20
2018-01-03T08:09:43.096Z,1.80
2018-01-03T08:12:10.785Z,1.33
2018-01-03T08:14:38.533Z,1.50
2018-01-03T08:17:06.396Z,1.60
2018-01-03T08:19:34.139Z,1.97
2018-01-03T08:22:01.922Z,1.03
2018-01-03T08:24:29.659Z,2.00
2018-01-03T08:27:00.181Z,1.90
2018-01-03T08:29:29.224Z,2.10
2018-01-03T08:31:56.874Z,1.47
2018-01-03T08:34:26.599Z,1.90
2018-01-03T08:36:55.935Z,2.50
2018-01-03T08:39:24.553Z,2.13
2018-01-03T08:41:52.438Z,2.00
2018-01-03T08:44:26.513Z,2.23
2018-01-03T08:46:54.364Z,1.53
2018-01-03T08:49:29.040Z,3.00
2018-01-03T08:52:06.037Z,1.50
2018-01-03T08:54:36.204Z,1.90
2018-01-03T08:57:04.055Z,1.07
2018-01-03T08:59:31.751Z,1.60
2018-01-03T09:01:59.410Z,1.43
2018-01-03T09:04:30.545Z,2.40
2018-01-03T09:06:58.436Z,2.10
2018-01-03T09:09:26.065Z,4.03
2018-01-03T09:11:53.737Z,2.40
2018-01-03T09:14:21.475Z,1.70
2018-01-03T09:16:49.164Z,2.30
2018-01-03T09:19:18.706Z,3.10
2018-01-03T09:21:47.635Z,2.40
2018-01-03T09:24:16.605Z,2.57
2018-01-03T09:26:44.382Z,2.30
2018-01-03T09:29:12.592Z,1.90
2018-01-03T09:31:40.306Z,2.37
2018-01-03T09:34:09.543Z,2.40
2018-01-03T09:36:39.424Z,2.47
2018-01-03T09:39:08.116Z,2.20
2018-01-03T09:41:35.751Z,1.90
2018-01-03T09:44:05.477Z,1.87
2018-01-03T09:46:36.131Z,1.50
2018-01-03T09:49:04.299Z,2.90
2018-01-03T09:51:33.169Z,2.17
2018-01-03T09:54:00.870Z,2.70
2018-01-03T09:56:28.568Z,1.70
2018-01-03T09:58:57.213Z,2.70
2018-01-03T10:01:26.567Z,2.60
2018-01-03T10:03:54.844Z,2.43
2018-01-03T10:06:22.785Z,3.47
2018-01-03T10:08:53.309Z,1.70
2018-01-03T10:11:26.433Z,2.30
2018-01-03T10:13:54.200Z,2.83
2018-01-03T10:16:24.285Z,2.17
2018-01-03T10:18:53.272Z,1.90
2018-01-03T10:21:21.529Z,2.63
2018-01-03T10:23:49.316Z,1.80
2018-01-03T10:26:16.974Z,1.67
2018-01-03T10:28:46.290Z,2.20
2018-01-03T10:31:14.307Z,2.50
2018-01-03T10:33:43.203Z,2.90
2018-01-03T10:36:10.945Z,1.60
2018-01-03T10:38:47.332Z,1.97
2018-01-03T10:41:16.461Z,3.00
2018-01-03T10:43:59.095Z,1.70
2018-01-03T10:46:27.384Z,3.20
2018-01-03T10:48:55.100Z,1.97
2018-01-03T10:51:22.965Z,1.60
2018-01-03T10:53:50.875Z,1.90
2018-01-03T10:56:20.678Z,1.53
2018-01-03T10:58:48.851Z,2.10
2018-01-03T11:01:16.564Z,1.00
2018-01-03T11:03:44.352Z,1.70
2018-01-03T11:06:12.012Z,1.80
2018-01-03T11:08:41.668Z,2.60
2018-01-03T11:11:10.077Z,2.43
2018-01-03T11:13:38.688Z,2.73
2018-01-03T11:16:08.502Z,2.30
2018-01-03T11:18:38.406Z,1.77
2018-01-03T11:21:06.138Z,2.27
2018-01-03T11:23:34.148Z,3.00
2018-01-03T11:26:01.902Z,2.13
2018-01-03T11:28:30.839Z,2.13
2018-01-03T11:31:02.337Z,3.17
2018-01-03T11:33:38.426Z,1.73
2018-01-03T15:00:19.760Z,1.90
2018-01-03T15:08:43.437Z,3.13
2018-01-03T15:11:18.844Z,3.50
2018-01-03T15:13:49.673Z,2.67
2018-01-03T15:18:56.354Z,3.27
2018-01-03T15:22:17.378Z,2.20
2018-01-03T15:24:53.869Z,4.80
2018-01-03T15:27:24.278Z,3.63
2018-01-03T15:30:04.759Z,3.20
2018-01-03T15:32:33.698Z,3.70
2018-01-03T15:38:20.056Z,3.40
2018-01-03T15:40:49.765Z,3.10
2018-01-03T15:43:29.239Z,4.60
2018-01-03T15:46:02.926Z,3.07
2018-01-03T15:48:35.921Z,3.30
2018-01-03T15:54:24.485Z,2.97
2018-01-03T15:57:04.422Z,3.43
2018-01-03T15:59:51.703Z,2.50
2018-01-03T16:02:32.363Z,3.33
2018-01-03T16:08:20.263Z,3.20
2018-01-03T16:10:47.993Z,4.30
2018-01-03T16:13:26.896Z,3.17
2018-01-03T16:16:00.465Z,3.23
2018-01-03T17:12:41.639Z,3.90
2018-01-03T17:50:31.508Z,2.70
2018-01-03T17:58:19.330Z,3.50
2018-01-03T18:03:29.770Z,3.50
2018-01-03T18:08:55.491Z,5.27
2018-01-03T18:54:17.500Z,3.30
2018-01-03T18:56:45.525Z,3.70
2018-01-03T18:59:13.237Z,4.50
2018-01-03T19:01:44.417Z,3.27
2018-01-03T19:04:17.658Z,2.87
2018-01-03T19:06:59.166Z,3.47
2018-01-03T19:09:30.282Z,3.10
2018-01-03T19:12:04.513Z,4.67
2018-01-03T19:14:40.824Z,4.83
2018-01-03T19:17:08.582Z,3.17
2018-01-03T19:19:37.884Z,3.17
2018-01-03T19:22:05.733Z,3.60
2018-01-03T19:24:33.536Z,3.97
2018-01-03T19:27:01.389Z,3.90
2018-01-03T19:29:29.153Z,3.20
2018-01-03T19:32:04.069Z,3.00
2018-01-03T19:34:35.574Z,3.70
2018-01-03T19:37:05.791Z,5.60
2018-01-03T19:39:33.407Z,3.40
2018-01-03T19:42:01.112Z,3.70
2018-01-03T19:44:29.505Z,3.53
2018-01-03T19:46:59.921Z,3.63
2018-01-03T19:49:27.661Z,3.20
2018-01-03T19:51:55.436Z,4.13
2018-01-03T19:54:23.195Z,3.70
2018-01-03T19:56:51.466Z,3.53
2018-01-03T19:59:19.426Z,4.13
2018-01-03T20:01:47.364Z,4.67
2018-01-03T20:04:15.047Z,4.40
2018-01-03T20:06:44.650Z,3.43
2018-01-03T20:09:12.535Z,3.37
2018-01-03T20:11:40.551Z,3.53
2018-01-03T20:14:08.272Z,3.87
2018-01-03T20:16:36.129Z,2.90
2018-01-03T20:19:04.473Z,3.53
2018-01-03T20:21:32.684Z,3.13
2018-01-03T20:24:00.392Z,2.80
2018-01-03T20:26:28.079Z,3.00
2018-01-03T20:28:57.769Z,3.70
2018-01-03T20:31:27.203Z,3.00
2018-01-03T20:33:54.969Z,3.20
2018-01-03T20:36:23.049Z,2.77
2018-01-03T20:38:50.815Z,3.30
2018-01-03T20:41:20.377Z,3.47
2018-01-03T20:43:48.121Z,5.10
2018-01-03T20:46:16.055Z,3.60
2018-01-03T20:48:43.796Z,3.40
2018-01-03T20:51:11.825Z,3.90
2018-01-03T20:53:41.052Z,3.60
2018-01-03T20:56:08.682Z,4.07
2018-01-03T20:58:39.496Z,3.37
2018-01-03T21:01:08.635Z,2.90
2018-01-03T21:03:36.524Z,4.00
2018-01-03T21:06:06.666Z,3.33
2018-01-03T21:08:34.285Z,3.30
2018-01-03T21:11:01.938Z,5.10
2018-01-03T21:13:29.921Z,4.47
2018-01-03T21:15:57.554Z,2.93
2018-01-03T21:18:25.136Z,3.57
2018-01-03T21:20:53.067Z,2.37
2018-01-03T21:23:20.732Z,4.20
2018-01-03T21:25:48.401Z,3.90
2018-01-03T21:28:16.148Z,3.43
2018-01-03T21:30:43.780Z,4.00
2018-01-03T21:33:11.402Z,3.50
2018-01-03T21:35:39.132Z,2.70
2018-01-03T21:38:06.876Z,3.43
2018-01-03T21:40:34.816Z,3.47
2018-01-03T21:43:03.241Z,3.40
2018-01-03T21:45:30.830Z,3.27
2018-01-03T21:47:58.429Z,3.27
2018-01-03T21:50:26.329Z,4.40
2018-01-03T21:52:53.904Z,3.23
2018-01-03T21:55:21.470Z,3.70
2018-01-03T21:57:49.110Z,3.13
2018-01-03T22:00:16.829Z,2.87
2018-01-03T22:02:44.422Z,3.80
2018-01-03T22:05:12.164Z,3.60
2018-01-03T22:07:39.836Z,3.07
2018-01-03T22:10:07.504Z,2.57
2018-01-03T22:12:35.432Z,3.93
2018-01-03T22:15:03.048Z,2.40
2018-01-03T22:17:30.638Z,3.70
2018-01-03T22:19:58.349Z,3.50
2018-01-03T22:22:25.917Z,4.20
2018-01-03T22:24:53.570Z,3.20
2018-01-03T22:27:21.284Z,4.37
2018-01-03T22:29:48.961Z,4.10
2018-01-03T22:32:16.577Z,4.80
2018-01-03T22:34:44.233Z,4.00
2018-01-03T22:37:12.182Z,4.30
2018-01-03T22:39:39.775Z,4.97
2018-01-03T22:42:07.404Z,4.23
2018-01-03T22:44:34.966Z,4.30
2018-01-03T22:47:02.676Z,5.03
2018-01-03T22:49:30.293Z,5.63
2018-01-03T22:51:58.143Z,4.50
2018-01-03T22:54:25.765Z,4.30
2018-01-03T22:56:53.385Z,4.40
2018-01-03T22:59:21.348Z,4.70
2018-01-03T23:01:49.247Z,5.50
2018-01-03T23:04:16.939Z,4.60
2018-01-03T23:06:44.648Z,4.80
2018-01-03T23:09:12.254Z,5.53
2018-01-03T23:11:39.909Z,5.33
2018-01-03T23:14:07.589Z,5.03
2018-01-03T23:16:35.322Z,5.77
2018-01-03T23:19:03.084Z,5.13
2018-01-03T23:21:30.763Z,5.90
2018-01-03T23:23:58.416Z,7.20
2018-01-03T23:26:26.033Z,5.37
2018-01-03T23:28:53.948Z,4.20
2018-01-03T23:31:21.611Z,5.20
2018-01-03T23:33:49.194Z,5.20
2018-01-03T23:36:16.914Z,6.20
2018-01-03T23:38:44.543Z,5.93
2018-01-03T23:41:12.223Z,7.50
2018-01-03T23:43:39.885Z,7.83
2018-01-03T23:46:07.511Z,6.90
2018-01-03T23:48:35.110Z,6.70
2018-01-03T23:51:02.736Z,5.70
2018-01-03T23:53:30.642Z,6.63
2018-01-03T23:55:58.345Z,6.10
2018-01-03T23:58:25.966Z,5.70
